createdAt,value
2019-05-14T00:00:43.022Z,8.71
2019-05-14T00:01:43.029Z,8.64
2019-05-14T00:02:43.007Z,8.68
2019-05-14T00:03:42.992Z,8.57
2019-05-14T00:04:42.986Z,8.60
2019-05-14T00:05:42.972Z,8.63
2019-05-14T00:06:42.981Z,8.64
2019-05-14T00:07:42.950Z,8.61
2019-05-14T00:08:42.952Z,8.58
2019-05-14T00:09:42.932Z,8.61
2019-05-14T00:10:42.928Z,8.65
2019-05-14T00:11:42.929Z,8.61
2019-05-14T00:12:42.895Z,8.58
2019-05-14T00:13:42.887Z,8.60
2019-05-14T00:14:43.976Z,8.55
2019-05-14T00:15:42.870Z,8.63
2019-05-14T00:16:42.879Z,8.65
2019-05-14T00:17:42.850Z,8.61
2019-05-14T00:18:42.837Z,8.60
2019-05-14T00:19:42.826Z,8.52
2019-05-14T00:20:42.822Z,8.49
2019-05-14T00:21:42.823Z,8.50
2019-05-14T00:22:42.804Z,8.47
2019-05-14T00:23:42.780Z,8.45
2019-05-14T00:24:42.774Z,8.50
2019-05-14T00:25:42.760Z,8.37
2019-05-14T00:26:42.892Z,8.43
2019-05-14T00:27:42.748Z,8.37
2019-05-14T00:28:42.761Z,8.47
2019-05-14T00:29:42.724Z,8.49
2019-05-14T00:30:42.715Z,8.39
2019-05-14T00:31:42.846Z,8.40
2019-05-14T00:32:42.699Z,8.39
2019-05-14T00:33:42.687Z,8.43
2019-05-14T00:34:42.708Z,8.42
2019-05-14T00:35:42.655Z,8.39
2019-05-14T00:36:42.661Z,8.36
2019-05-14T00:37:42.635Z,8.29
2019-05-14T00:38:42.628Z,8.29
2019-05-14T00:39:42.623Z,8.37
2019-05-14T00:40:42.613Z,8.42
2019-05-14T00:41:42.622Z,8.42
2019-05-14T00:42:42.586Z,8.45
2019-05-14T00:43:42.572Z,8.40
2019-05-14T00:44:53.601Z,8.37
2019-05-14T00:45:43.548Z,8.45
2019-05-14T00:46:42.569Z,8.45
2019-05-14T00:47:42.538Z,8.42
2019-05-14T00:48:42.522Z,8.34
2019-05-14T00:49:42.723Z,8.31
2019-05-14T00:50:42.505Z,8.28
2019-05-14T00:51:42.524Z,8.27
2019-05-14T00:52:46.103Z,8.14
2019-05-14T00:53:42.474Z,8.27
2019-05-14T00:54:42.461Z,8.27
2019-05-14T00:55:42.446Z,8.31
2019-05-14T00:56:42.444Z,8.37
2019-05-14T00:57:42.843Z,8.32
2019-05-14T00:58:42.415Z,8.32
2019-05-14T00:59:42.413Z,8.32
2019-05-14T01:00:42.398Z,8.29
2019-05-14T01:01:42.675Z,8.31
2019-05-14T01:02:42.387Z,8.32
2019-05-14T01:03:42.382Z,8.31
2019-05-14T01:04:42.976Z,8.37
2019-05-14T01:05:42.350Z,8.27
2019-05-14T01:06:42.335Z,8.28
2019-05-14T01:07:42.520Z,8.36
2019-05-14T01:08:42.328Z,8.37
2019-05-14T01:09:42.368Z,8.31
2019-05-14T01:10:42.288Z,8.32
2019-05-14T01:11:42.286Z,8.27
2019-05-14T01:12:42.274Z,8.10
2019-05-14T01:13:42.283Z,8.13
2019-05-14T01:14:42.648Z,8.20
2019-05-14T01:15:42.236Z,8.29
2019-05-14T01:16:42.569Z,8.25
2019-05-14T01:17:42.343Z,8.25
2019-05-14T01:18:42.202Z,8.20
2019-05-14T01:19:42.686Z,8.20
2019-05-14T01:20:42.205Z,8.20
2019-05-14T01:21:42.168Z,8.20
2019-05-14T01:22:42.414Z,8.13
2019-05-14T01:23:42.149Z,8.18
2019-05-14T01:24:42.154Z,8.20
2019-05-14T01:25:42.304Z,8.14
2019-05-14T01:26:42.135Z,8.17
2019-05-14T01:27:42.101Z,8.12
2019-05-14T01:28:42.089Z,8.13
2019-05-14T01:29:42.629Z,8.13
2019-05-14T01:30:42.072Z,8.09
2019-05-14T01:31:42.075Z,8.00
2019-05-14T01:32:42.261Z,7.95
2019-05-14T01:33:42.045Z,8.02
2019-05-14T01:34:42.260Z,7.94
2019-05-14T01:35:42.177Z,7.89
2019-05-14T01:36:42.013Z,8.03
2019-05-14T01:37:42.008Z,7.95
2019-05-14T01:38:42.055Z,7.92
2019-05-14T01:39:42.197Z,7.96
2019-05-14T01:40:42.141Z,8.00
2019-05-14T01:41:42.520Z,7.99
2019-05-14T01:42:41.938Z,7.96
2019-05-14T01:43:42.119Z,7.91
2019-05-14T01:44:41.924Z,8.00
2019-05-14T01:45:41.938Z,8.04
2019-05-14T01:46:42.193Z,8.06
2019-05-14T01:47:41.888Z,8.09
2019-05-14T01:48:41.953Z,7.96
2019-05-14T01:49:42.821Z,7.92
2019-05-14T01:50:41.863Z,8.04
2019-05-14T01:51:42.515Z,8.04
2019-05-14T01:52:41.853Z,7.89
2019-05-14T01:53:41.902Z,8.03
2019-05-14T01:54:42.700Z,7.96
2019-05-14T01:55:41.810Z,7.95
2019-05-14T01:56:42.475Z,7.92
2019-05-14T01:57:42.523Z,7.92
2019-05-14T01:58:41.917Z,7.94
2019-05-14T01:59:42.938Z,7.88
2019-05-14T02:00:41.793Z,7.91
2019-05-14T02:01:41.841Z,7.91
2019-05-14T02:02:41.971Z,7.92
2019-05-14T02:03:41.726Z,7.91
2019-05-14T02:04:42.790Z,7.95
2019-05-14T02:05:41.797Z,7.96
2019-05-14T02:06:41.700Z,7.92
2019-05-14T02:07:42.107Z,7.89
2019-05-14T02:08:41.664Z,7.92
2019-05-14T02:09:42.127Z,7.91
2019-05-14T02:10:42.055Z,7.88
2019-05-14T02:11:41.826Z,7.89
2019-05-14T02:12:42.331Z,7.88
2019-05-14T02:13:41.613Z,7.84
2019-05-14T02:14:42.478Z,7.84
2019-05-14T02:15:42.940Z,7.84
2019-05-14T02:16:42.241Z,7.77
2019-05-14T02:17:41.685Z,7.79
2019-05-14T02:18:41.757Z,7.81
2019-05-14T02:19:42.557Z,7.82
2019-05-14T02:20:41.579Z,7.74
2019-05-14T02:21:42.565Z,7.71
2019-05-14T02:22:41.869Z,7.71
2019-05-14T02:23:42.084Z,7.76
2019-05-14T02:24:41.968Z,7.67
2019-05-14T02:25:41.481Z,7.70
2019-05-14T02:26:42.453Z,7.74
2019-05-14T02:27:41.575Z,7.74
2019-05-14T02:28:42.125Z,7.74
2019-05-14T02:29:41.795Z,7.66
2019-05-14T02:30:51.517Z,7.70
2019-05-14T02:31:42.415Z,7.70
2019-05-14T02:32:41.413Z,7.57
2019-05-14T02:33:41.416Z,7.55
2019-05-14T02:34:41.401Z,7.58
2019-05-14T02:35:41.391Z,7.58
2019-05-14T02:36:41.370Z,7.54
2019-05-14T02:37:41.360Z,7.55
2019-05-14T02:38:41.363Z,7.54
2019-05-14T02:39:41.517Z,7.54
2019-05-14T02:40:41.327Z,7.50
2019-05-14T02:41:41.318Z,7.57
2019-05-14T02:42:41.328Z,7.48
2019-05-14T02:43:41.304Z,7.47
2019-05-14T02:44:41.281Z,7.50
2019-05-14T02:46:00.879Z,7.44
2019-05-14T02:46:42.266Z,7.45
2019-05-14T02:47:41.257Z,7.42
2019-05-14T02:48:41.261Z,7.34
2019-05-14T02:49:41.235Z,7.37
2019-05-14T02:50:41.225Z,7.42
2019-05-14T02:51:41.209Z,7.50
2019-05-14T02:52:41.197Z,7.34
2019-05-14T02:53:41.206Z,7.33
2019-05-14T02:54:41.175Z,7.42
2019-05-14T02:55:41.179Z,7.36
2019-05-14T02:56:41.160Z,7.34
2019-05-14T02:57:41.166Z,7.37
2019-05-14T02:58:41.175Z,7.30
2019-05-14T02:59:41.126Z,7.19
2019-05-14T03:00:41.119Z,7.29
2019-05-14T03:01:41.108Z,7.19
2019-05-14T03:02:41.099Z,7.26
2019-05-14T03:03:41.079Z,7.26
2019-05-14T03:04:41.099Z,7.15
2019-05-14T03:05:41.060Z,7.09
2019-05-14T03:06:41.049Z,7.12
2019-05-14T03:07:41.041Z,7.23
2019-05-14T03:08:41.032Z,7.26
2019-05-14T03:09:41.018Z,7.19
2019-05-14T03:10:41.025Z,7.16
2019-05-14T03:11:41.003Z,7.14
2019-05-14T03:12:40.998Z,7.15
2019-05-14T03:13:40.980Z,7.23
2019-05-14T03:14:40.981Z,7.16
2019-05-14T03:15:40.987Z,7.18
2019-05-14T03:16:40.993Z,7.16
2019-05-14T03:17:40.940Z,7.24
2019-05-14T03:18:40.945Z,7.15
2019-05-14T03:19:41.217Z,7.26
2019-05-14T03:20:40.915Z,7.12
2019-05-14T03:21:40.911Z,7.14
2019-05-14T03:22:54.892Z,7.14
2019-05-14T03:23:41.868Z,7.16
2019-05-14T03:24:40.854Z,7.14
2019-05-14T03:25:40.847Z,7.09
2019-05-14T03:26:40.864Z,7.21
2019-05-14T03:27:40.843Z,7.15
2019-05-14T03:28:40.822Z,7.07
2019-05-14T03:29:40.816Z,7.12
2019-05-14T03:30:42.771Z,7.08
2019-05-14T03:31:42.509Z,7.04
2019-05-14T03:32:42.426Z,7.05
2019-05-14T03:33:44.031Z,7.11
2019-05-14T03:34:42.821Z,7.08
2019-05-14T03:35:49.146Z,6.97
2019-05-14T03:36:43.503Z,7.01
2019-05-14T03:37:40.730Z,7.07
2019-05-14T03:38:40.710Z,6.96
2019-05-14T03:39:40.703Z,6.90
2019-05-14T03:40:40.694Z,6.99
2019-05-14T03:41:40.698Z,6.99
2019-05-14T03:42:40.693Z,6.89
2019-05-14T03:43:40.653Z,6.89
2019-05-14T03:44:40.669Z,6.91
2019-05-14T03:45:40.638Z,6.93
2019-05-14T03:46:49.612Z,6.89
2019-05-14T03:47:41.615Z,6.96
2019-05-14T03:48:40.610Z,6.91
2019-05-14T03:49:40.604Z,6.97
2019-05-14T03:50:40.587Z,6.99
2019-05-14T03:51:40.601Z,6.93
2019-05-14T03:52:40.573Z,6.90
2019-05-14T03:53:55.088Z,6.86
2019-05-14T03:54:41.542Z,6.90
2019-05-14T03:55:40.810Z,6.87
2019-05-14T03:56:40.518Z,6.86
2019-05-14T03:57:40.523Z,6.96
2019-05-14T03:58:40.513Z,6.96
2019-05-14T03:59:40.847Z,6.99
2019-05-14T04:00:40.477Z,6.97
2019-05-14T04:01:40.519Z,6.91
2019-05-14T04:02:40.476Z,7.00
2019-05-14T04:03:40.469Z,6.97
2019-05-14T04:04:40.439Z,6.93
2019-05-14T04:05:40.438Z,7.01
2019-05-14T04:06:40.552Z,7.01
2019-05-14T04:07:40.409Z,6.97
2019-05-14T04:08:40.411Z,7.01
2019-05-14T04:09:40.382Z,7.01
2019-05-14T04:10:49.100Z,6.99
2019-05-14T04:11:41.362Z,7.05
2019-05-14T04:12:40.569Z,7.12
2019-05-14T04:13:40.828Z,7.15
2019-05-14T04:14:40.334Z,7.15
2019-05-14T04:15:40.314Z,7.12
2019-05-14T04:16:58.537Z,7.19
2019-05-14T04:17:42.278Z,7.14
2019-05-14T04:18:40.842Z,7.15
2019-05-14T04:19:40.284Z,7.26
2019-05-14T04:20:40.275Z,7.23
2019-05-14T04:21:40.255Z,7.16
2019-05-14T04:22:40.273Z,7.30
2019-05-14T04:23:40.266Z,7.26
2019-05-14T04:24:41.315Z,7.24
2019-05-14T04:25:40.213Z,7.18
2019-05-14T04:26:56.230Z,7.15
2019-05-14T04:27:41.199Z,7.23
2019-05-14T04:28:40.202Z,7.29
2019-05-14T04:29:40.166Z,7.33
2019-05-14T04:30:40.277Z,7.33
2019-05-14T04:31:40.151Z,7.36
2019-05-14T04:32:40.208Z,7.41
2019-05-14T04:33:40.149Z,7.34
2019-05-14T04:34:40.126Z,7.36
2019-05-14T04:35:40.260Z,7.47
2019-05-14T04:36:40.100Z,7.45
2019-05-14T04:37:40.255Z,7.52
2019-05-14T04:38:41.160Z,7.58
2019-05-14T04:39:40.076Z,7.54
2019-05-14T04:40:40.139Z,7.69
2019-05-14T04:41:40.037Z,7.71
2019-05-14T04:42:40.470Z,7.74
2019-05-14T04:43:40.499Z,7.74
2019-05-14T04:44:40.728Z,7.81
2019-05-14T04:45:40.017Z,7.84
2019-05-14T04:46:39.992Z,7.88
2019-05-14T04:47:42.003Z,7.94
2019-05-14T04:48:43.572Z,7.85
2019-05-14T04:49:40.273Z,7.92
2019-05-14T04:50:40.617Z,8.00
2019-05-14T04:51:39.969Z,8.00
2019-05-14T04:52:40.641Z,7.95
2019-05-14T04:53:39.913Z,8.09
2019-05-14T04:54:39.928Z,8.09
2019-05-14T04:55:40.259Z,8.12
2019-05-14T04:56:40.302Z,8.13
2019-05-14T04:57:39.888Z,8.12
2019-05-14T04:58:41.263Z,8.28
2019-05-14T04:59:40.280Z,8.21
2019-05-14T05:00:39.857Z,8.25
2019-05-14T05:01:40.367Z,8.27
2019-05-14T05:02:40.217Z,8.29
2019-05-14T05:03:40.346Z,8.29
2019-05-14T05:04:40.991Z,8.29
2019-05-14T05:05:39.815Z,8.36
2019-05-14T05:06:39.925Z,8.55
2019-05-14T05:07:40.526Z,8.52
2019-05-14T05:08:40.073Z,8.63
2019-05-14T05:09:40.260Z,8.76
2019-05-14T05:10:39.987Z,8.75
2019-05-14T05:11:39.839Z,8.98
2019-05-14T05:12:39.723Z,9.01
2019-05-14T05:13:40.083Z,9.00
2019-05-14T05:14:39.711Z,8.98
2019-05-14T05:15:39.720Z,8.94
2019-05-14T05:16:39.675Z,8.91
2019-05-14T05:17:47.031Z,9.01
2019-05-14T05:18:40.665Z,8.91
2019-05-14T05:19:44.771Z,8.88
2019-05-14T05:20:40.647Z,8.91
2019-05-14T05:21:39.622Z,8.88
2019-05-14T05:22:39.937Z,8.91
2019-05-14T05:23:39.592Z,8.91
2019-05-14T05:24:39.584Z,9.31
2019-05-14T05:25:39.588Z,9.62
2019-05-14T05:26:39.583Z,10.10
2019-05-14T05:27:39.566Z,10.58
2019-05-14T05:28:39.544Z,10.90
2019-05-14T05:29:39.539Z,11.23
2019-05-14T05:30:39.525Z,11.63
2019-05-14T05:31:39.539Z,11.84
2019-05-14T05:32:39.494Z,12.08
2019-05-14T05:33:39.486Z,12.41
2019-05-14T05:34:39.476Z,12.66
2019-05-14T05:35:42.354Z,12.79
2019-05-14T05:36:39.483Z,12.84
2019-05-14T05:37:39.441Z,13.12
2019-05-14T05:38:39.745Z,13.31
2019-05-14T05:39:39.430Z,13.76
2019-05-14T05:40:39.418Z,13.76
2019-05-14T05:41:39.404Z,13.79
2019-05-14T05:42:39.417Z,13.53
2019-05-14T05:43:39.643Z,13.04
2019-05-14T05:44:39.639Z,12.80
2019-05-14T05:45:39.361Z,13.50
2019-05-14T05:46:39.352Z,14.08
2019-05-14T05:47:53.139Z,14.63
2019-05-14T05:48:40.341Z,15.07
2019-05-14T05:49:39.329Z,15.27
2019-05-14T05:50:39.311Z,15.40
2019-05-14T05:51:40.093Z,15.60
2019-05-14T05:52:39.285Z,15.95
2019-05-14T05:53:39.660Z,16.41
2019-05-14T05:54:39.272Z,16.81
2019-05-14T05:55:39.579Z,17.20
2019-05-14T05:56:39.238Z,16.25
2019-05-14T05:57:39.569Z,16.45
2019-05-14T05:58:39.975Z,16.59
2019-05-14T05:59:39.534Z,16.65
2019-05-14T06:00:40.113Z,16.90
2019-05-14T06:01:45.739Z,17.00
2019-05-14T06:02:40.247Z,17.47
2019-05-14T06:03:39.447Z,17.54
2019-05-14T06:04:39.606Z,16.27
2019-05-14T06:05:39.228Z,14.97
2019-05-14T06:06:39.182Z,15.13
2019-05-14T06:07:39.660Z,15.04
2019-05-14T06:08:39.114Z,13.71
2019-05-14T06:09:39.115Z,12.88
2019-05-14T06:10:39.935Z,12.19
2019-05-14T06:11:39.089Z,11.75
2019-05-14T06:12:39.158Z,11.53
2019-05-14T06:13:39.386Z,11.46
2019-05-14T06:14:39.049Z,11.51
2019-05-14T06:15:45.635Z,11.51
2019-05-14T06:16:40.030Z,11.53
2019-05-14T06:17:39.467Z,11.66
2019-05-14T06:18:39.591Z,11.75
2019-05-14T06:19:39.007Z,11.96
2019-05-14T06:20:38.989Z,12.25
2019-05-14T06:21:39.795Z,13.07
2019-05-14T06:22:38.962Z,13.59
2019-05-14T06:23:38.998Z,13.44
2019-05-14T06:24:39.206Z,13.21
2019-05-14T06:25:40.087Z,12.98
2019-05-14T06:26:38.922Z,13.07
2019-05-14T06:27:38.907Z,13.61
2019-05-14T06:28:40.933Z,13.91
2019-05-14T06:29:38.892Z,15.59
2019-05-14T06:30:39.602Z,15.28
2019-05-14T06:31:38.915Z,15.44
2019-05-14T06:32:39.063Z,15.15
2019-05-14T06:33:39.530Z,14.90
2019-05-14T06:34:38.848Z,14.31
2019-05-14T06:35:39.697Z,15.34
2019-05-14T06:36:39.673Z,15.99
2019-05-14T06:37:38.802Z,16.32
2019-05-14T06:38:39.140Z,16.57
2019-05-14T06:39:39.280Z,14.95
2019-05-14T06:40:39.481Z,13.68
2019-05-14T06:41:42.629Z,13.32
2019-05-14T06:42:39.417Z,12.84
2019-05-14T06:43:39.414Z,12.46
2019-05-14T06:44:38.843Z,12.16
2019-05-14T06:45:39.073Z,11.94
2019-05-14T06:46:39.221Z,11.60
2019-05-14T06:47:38.688Z,11.46
2019-05-14T06:48:39.609Z,11.38
2019-05-14T06:49:38.764Z,11.33
2019-05-14T06:50:39.303Z,11.77
2019-05-14T06:51:39.513Z,14.61
2019-05-14T06:52:39.015Z,16.44
2019-05-14T06:53:39.394Z,18.05
2019-05-14T06:54:38.936Z,18.28
2019-05-14T06:55:39.327Z,18.99
2019-05-14T06:56:38.768Z,18.56
2019-05-14T06:57:39.377Z,18.90
2019-05-14T06:58:39.060Z,19.92
2019-05-14T06:59:38.568Z,19.10
2019-05-14T07:00:39.410Z,18.13
2019-05-14T07:01:38.645Z,18.09
2019-05-14T07:02:43.646Z,18.20
2019-05-14T07:03:39.524Z,17.09
2019-05-14T07:04:39.514Z,16.42
2019-05-14T07:05:39.125Z,16.01
2019-05-14T07:06:39.075Z,15.77
2019-05-14T07:07:40.484Z,15.28
2019-05-14T07:08:39.338Z,14.90
2019-05-14T07:09:38.659Z,15.09
2019-05-14T07:10:39.434Z,14.86
2019-05-14T07:11:38.939Z,14.72
2019-05-14T07:12:38.894Z,14.74
2019-05-14T07:13:38.752Z,14.66
2019-05-14T07:14:38.977Z,14.66
2019-05-14T07:15:38.769Z,15.67
2019-05-14T07:16:39.002Z,15.88
2019-05-14T07:17:38.714Z,15.28
2019-05-14T07:18:50.757Z,15.28
2019-05-14T07:19:39.344Z,15.00
2019-05-14T07:20:39.274Z,15.00
2019-05-14T07:21:38.483Z,15.55
2019-05-14T07:22:38.980Z,15.55
2019-05-14T07:23:38.669Z,15.34
2019-05-14T07:24:40.531Z,15.81
2019-05-14T07:25:39.292Z,15.91
2019-05-14T07:26:38.970Z,15.43
2019-05-14T07:27:39.186Z,15.30
2019-05-14T07:28:42.137Z,15.51
2019-05-14T07:29:38.934Z,15.22
2019-05-14T07:30:39.650Z,15.09
2019-05-14T07:31:38.580Z,14.82
2019-05-14T07:32:39.488Z,14.41
2019-05-14T07:33:38.996Z,14.20
2019-05-14T07:34:38.915Z,14.02
2019-05-14T07:35:38.372Z,13.96
2019-05-14T07:36:38.826Z,13.98
2019-05-14T07:37:39.530Z,15.76
2019-05-14T07:38:39.246Z,15.96
2019-05-14T07:39:38.684Z,17.46
2019-05-14T07:40:38.801Z,19.32
2019-05-14T07:41:38.983Z,20.50
2019-05-14T07:42:38.501Z,19.40
2019-05-14T07:43:39.344Z,17.96
2019-05-14T07:44:39.029Z,16.75
2019-05-14T07:45:38.629Z,16.04
2019-05-14T07:46:38.932Z,15.34
2019-05-14T07:47:38.792Z,15.12
2019-05-14T07:48:39.251Z,15.04
2019-05-14T07:49:38.654Z,15.01
2019-05-14T07:50:39.714Z,14.66
2019-05-14T07:51:38.816Z,14.45
2019-05-14T07:52:45.463Z,14.21
2019-05-14T07:53:42.374Z,14.09
2019-05-14T07:54:38.958Z,14.12
2019-05-14T07:55:38.579Z,13.98
2019-05-14T07:56:38.462Z,13.90
2019-05-14T07:57:39.281Z,13.87
2019-05-14T07:58:38.647Z,13.68
2019-05-14T07:59:38.234Z,13.71
2019-05-14T08:00:40.288Z,13.65
2019-05-14T08:01:38.871Z,13.66
2019-05-14T08:02:38.119Z,13.86
2019-05-14T08:03:38.427Z,14.11
2019-05-14T08:04:38.255Z,14.06
2019-05-14T08:05:38.942Z,14.20
2019-05-14T08:06:39.385Z,14.11
2019-05-14T08:07:38.838Z,14.21
2019-05-14T08:08:38.588Z,14.27
2019-05-14T08:09:38.927Z,14.36
2019-05-14T08:10:39.220Z,14.64
2019-05-14T08:11:38.738Z,14.82
2019-05-14T08:12:39.162Z,15.44
2019-05-14T08:13:39.077Z,16.85
2019-05-14T08:14:46.263Z,18.47
2019-05-14T08:15:38.851Z,19.50
2019-05-14T08:16:38.248Z,18.64
2019-05-14T08:17:38.786Z,18.01
2019-05-14T08:18:39.638Z,17.39
2019-05-14T08:19:38.558Z,17.24
2019-05-14T08:20:38.123Z,18.36
2019-05-14T08:21:38.813Z,18.49
2019-05-14T08:22:38.308Z,17.84
2019-05-14T08:23:39.127Z,17.15
2019-05-14T08:24:38.523Z,16.81
2019-05-14T08:25:38.967Z,16.92
2019-05-14T08:26:38.200Z,16.91
2019-05-14T08:27:38.848Z,17.53
2019-05-14T08:28:38.238Z,17.07
2019-05-14T08:29:40.063Z,16.82
2019-05-14T08:30:38.898Z,16.59
2019-05-14T08:31:38.376Z,16.27
2019-05-14T08:32:39.009Z,16.29
2019-05-14T08:33:39.751Z,16.17
2019-05-14T08:34:38.942Z,15.98
2019-05-14T08:35:39.518Z,15.95
2019-05-14T08:36:38.032Z,16.08
2019-05-14T08:37:38.692Z,16.13
2019-05-14T08:38:38.246Z,16.10
2019-05-14T08:39:39.242Z,15.86
2019-05-14T08:40:38.268Z,16.57
2019-05-14T08:41:38.369Z,18.23
2019-05-14T08:42:38.278Z,17.55
2019-05-14T08:43:39.633Z,18.87
2019-05-14T08:44:38.938Z,20.40
2019-05-14T08:45:38.901Z,21.16
2019-05-14T08:46:38.927Z,22.35
2019-05-14T08:47:39.128Z,23.44
2019-05-14T08:48:38.847Z,24.18
2019-05-14T08:49:45.535Z,24.94
2019-05-14T08:50:38.842Z,25.54
2019-05-14T08:51:38.761Z,25.34
2019-05-14T08:52:39.337Z,23.26
2019-05-14T08:53:38.625Z,21.93
2019-05-14T08:54:39.081Z,20.78
2019-05-14T08:55:38.224Z,19.61
2019-05-14T08:56:38.948Z,18.91
2019-05-14T08:57:38.706Z,18.69
2019-05-14T08:58:38.569Z,18.54
2019-05-14T08:59:39.647Z,19.10
2019-05-14T09:00:38.690Z,18.53
2019-05-14T09:01:38.742Z,17.86
2019-05-14T09:02:39.309Z,17.45
2019-05-14T09:03:39.381Z,16.98
2019-05-14T09:04:41.952Z,16.59
2019-05-14T09:05:38.724Z,16.87
2019-05-14T09:06:38.494Z,19.21
2019-05-14T09:07:38.409Z,19.80
2019-05-14T09:08:39.128Z,19.83
2019-05-14T09:09:38.200Z,19.46
2019-05-14T09:10:39.996Z,18.64
2019-05-14T09:11:43.979Z,17.99
2019-05-14T09:12:38.763Z,17.62
2019-05-14T09:13:38.295Z,17.57
2019-05-14T09:14:38.828Z,17.45
2019-05-14T09:15:38.463Z,17.03
2019-05-14T09:16:46.261Z,16.84
2019-05-14T09:17:39.038Z,16.81
2019-05-14T09:18:38.455Z,16.62
2019-05-14T09:19:39.491Z,16.34
2019-05-14T09:20:38.240Z,16.11
2019-05-14T09:21:39.648Z,16.03
2019-05-14T09:22:39.529Z,16.01
2019-05-14T09:23:39.104Z,15.85
2019-05-14T09:24:38.746Z,15.78
2019-05-14T09:25:45.649Z,15.68
2019-05-14T09:26:39.048Z,17.20
2019-05-14T09:27:38.773Z,19.61
2019-05-14T09:28:39.232Z,20.27
2019-05-14T09:29:39.211Z,20.98
2019-05-14T09:30:38.144Z,19.92
2019-05-14T09:31:39.085Z,19.12
2019-05-14T09:32:38.799Z,18.26
2019-05-14T09:33:38.929Z,18.54
2019-05-14T09:34:39.087Z,19.87
2019-05-14T09:35:38.649Z,19.46
2019-05-14T09:36:39.310Z,19.94
2019-05-14T09:37:39.310Z,19.49
2019-05-14T09:38:41.707Z,18.75
2019-05-14T09:39:38.558Z,20.35
2019-05-14T09:40:39.455Z,19.75
2019-05-14T09:41:38.761Z,19.16
2019-05-14T09:42:39.366Z,18.78
2019-05-14T09:43:39.027Z,18.41
2019-05-14T09:44:38.749Z,17.92
2019-05-14T09:45:38.651Z,17.46
2019-05-14T09:46:38.466Z,17.05
2019-05-14T09:47:38.762Z,18.46
2019-05-14T09:48:37.997Z,19.52
2019-05-14T09:49:38.898Z,18.93
2019-05-14T09:50:38.385Z,18.49
2019-05-14T09:51:38.366Z,19.83
2019-05-14T09:52:39.017Z,19.39
2019-05-14T09:53:38.371Z,20.25
2019-05-14T09:54:39.406Z,21.93
2019-05-14T09:55:38.828Z,23.21
2019-05-14T09:56:39.353Z,24.11
2019-05-14T09:57:38.714Z,24.64
2019-05-14T09:58:38.821Z,24.68
2019-05-14T09:59:38.490Z,24.19
2019-05-14T10:00:38.779Z,24.71
2019-05-14T10:01:38.378Z,24.99
2019-05-14T10:02:39.024Z,25.59
2019-05-14T10:03:38.862Z,25.66
2019-05-14T10:04:38.909Z,23.82
2019-05-14T10:05:36.577Z,23.50
2019-05-14T10:06:39.029Z,22.79
2019-05-14T10:07:39.024Z,21.53
2019-05-14T10:08:38.830Z,20.54
2019-05-14T10:09:38.998Z,19.68
2019-05-14T10:10:39.642Z,18.68
2019-05-14T10:11:38.347Z,18.20
2019-05-14T10:12:44.735Z,17.68
2019-05-14T10:13:39.252Z,17.28
2019-05-14T10:14:39.045Z,17.18
2019-05-14T10:15:38.948Z,16.90
2019-05-14T10:16:38.532Z,16.69
2019-05-14T10:17:39.199Z,16.62
2019-05-14T10:18:38.048Z,16.57
2019-05-14T10:19:39.322Z,16.66
2019-05-14T10:20:45.175Z,16.66
2019-05-14T10:21:38.881Z,18.09
2019-05-14T10:22:36.395Z,19.61
2019-05-14T10:23:38.703Z,21.52
2019-05-14T10:24:38.669Z,21.22
2019-05-14T10:25:40.264Z,21.26
2019-05-14T10:26:39.479Z,21.21
2019-05-14T10:27:36.352Z,20.91
2019-05-14T10:28:36.333Z,20.98
2019-05-14T10:29:36.325Z,21.61
2019-05-14T10:30:36.320Z,21.12
2019-05-14T10:31:36.311Z,20.83
2019-05-14T10:32:36.298Z,19.90
2019-05-14T10:33:36.279Z,19.47
2019-05-14T10:34:36.265Z,18.69
2019-05-14T10:35:36.261Z,18.11
2019-05-14T10:36:36.274Z,17.57
2019-05-14T10:37:39.819Z,17.25
2019-05-14T10:38:38.556Z,16.98
2019-05-14T10:39:38.829Z,16.75
2019-05-14T10:40:38.560Z,16.87
2019-05-14T10:41:38.428Z,16.99
2019-05-14T10:42:36.248Z,16.80
2019-05-14T10:43:38.963Z,16.87
2019-05-14T10:44:38.493Z,18.21
2019-05-14T10:45:38.281Z,20.46
2019-05-14T10:46:38.468Z,22.27
2019-05-14T10:47:38.684Z,21.46
2019-05-14T10:48:36.142Z,20.97
2019-05-14T10:49:38.499Z,20.30
2019-05-14T10:50:52.271Z,19.79
2019-05-14T10:51:38.877Z,19.02
2019-05-14T10:52:36.099Z,18.62
2019-05-14T10:53:36.071Z,18.02
2019-05-14T10:54:36.055Z,17.33
2019-05-14T10:55:38.428Z,16.67
2019-05-14T10:56:36.053Z,16.22
2019-05-14T10:57:36.024Z,15.98
2019-05-14T10:58:36.024Z,15.89
2019-05-14T10:59:36.014Z,15.93
2019-05-14T11:00:36.016Z,15.80
2019-05-14T11:01:35.988Z,15.80
2019-05-14T11:02:38.530Z,15.96
2019-05-14T11:03:38.595Z,15.89
2019-05-14T11:04:35.949Z,16.07
2019-05-14T11:05:35.962Z,16.73
2019-05-14T11:06:38.589Z,16.98
2019-05-14T11:07:41.452Z,16.95
2019-05-14T11:08:38.677Z,17.25
2019-05-14T11:09:37.904Z,18.13
2019-05-14T11:10:35.893Z,17.87
2019-05-14T11:11:38.086Z,17.42
2019-05-14T11:12:35.879Z,16.96
2019-05-14T11:13:35.857Z,16.44
2019-05-14T11:14:38.509Z,16.30
2019-05-14T11:15:35.832Z,16.07
2019-05-14T11:16:35.843Z,15.99
2019-05-14T11:17:35.808Z,15.95
2019-05-14T11:18:35.801Z,15.91
2019-05-14T11:19:35.808Z,15.80
2019-05-14T11:20:35.801Z,15.91
2019-05-14T11:21:35.776Z,16.06
2019-05-14T11:22:35.772Z,16.32
2019-05-14T11:23:38.421Z,16.41
2019-05-14T11:24:38.310Z,16.55
2019-05-14T11:25:38.171Z,17.03
2019-05-14T11:26:35.710Z,17.89
2019-05-14T11:27:35.707Z,18.82
2019-05-14T11:28:35.699Z,20.08
2019-05-14T11:29:35.693Z,20.79
2019-05-14T11:30:35.668Z,20.69
2019-05-14T11:31:35.666Z,20.48
2019-05-14T11:32:38.322Z,20.96
2019-05-14T11:33:35.642Z,21.52
2019-05-14T11:34:35.679Z,23.32
2019-05-14T11:35:35.616Z,23.74
2019-05-14T11:36:35.605Z,22.63
2019-05-14T11:37:35.594Z,21.66
2019-05-14T11:38:37.428Z,20.76
2019-05-14T11:39:37.820Z,20.30
2019-05-14T11:40:38.543Z,19.78
2019-05-14T11:41:35.559Z,19.50
2019-05-14T11:42:35.548Z,19.13
2019-05-14T11:43:35.533Z,20.02
2019-05-14T11:44:38.002Z,21.37
2019-05-14T11:45:35.543Z,21.61
2019-05-14T11:46:47.459Z,20.69
2019-05-14T11:47:37.997Z,19.40
2019-05-14T11:48:35.482Z,18.59
2019-05-14T11:49:35.473Z,17.74
2019-05-14T11:50:35.459Z,17.33
2019-05-14T11:51:58.880Z,17.03
2019-05-14T11:52:38.682Z,16.87
2019-05-14T11:53:35.432Z,16.87
2019-05-14T11:54:35.432Z,16.75
2019-05-14T11:55:35.405Z,16.67
2019-05-14T11:56:35.413Z,16.77
2019-05-14T11:57:35.381Z,16.65
2019-05-14T11:58:35.383Z,16.45
2019-05-14T11:59:35.367Z,16.42
2019-05-14T12:00:35.355Z,16.47
2019-05-14T12:01:35.365Z,16.54
2019-05-14T12:02:35.330Z,16.41
2019-05-14T12:03:35.327Z,16.45
2019-05-14T12:04:35.320Z,16.45
2019-05-14T12:05:35.305Z,16.40
2019-05-14T12:06:35.294Z,16.29
2019-05-14T12:07:35.291Z,16.08
2019-05-14T12:08:35.266Z,16.07
2019-05-14T12:09:35.265Z,16.03
2019-05-14T12:10:35.260Z,15.89
2019-05-14T12:11:35.241Z,15.95
2019-05-14T12:12:35.253Z,15.95
2019-05-14T12:13:35.220Z,16.34
2019-05-14T12:14:35.208Z,16.63
2019-05-14T12:15:35.193Z,16.73
2019-05-14T12:16:35.185Z,16.99
2019-05-14T12:17:35.173Z,17.22
2019-05-14T12:18:35.180Z,17.18
2019-05-14T12:19:35.168Z,17.18
2019-05-14T12:20:35.149Z,17.21
2019-05-14T12:21:35.131Z,17.20
2019-05-14T12:22:35.116Z,16.96
2019-05-14T12:23:35.127Z,16.80
2019-05-14T12:24:35.144Z,16.69
2019-05-14T12:25:35.086Z,16.60
2019-05-14T12:26:35.083Z,16.44
2019-05-14T12:27:35.059Z,16.36
2019-05-14T12:28:35.069Z,16.47
2019-05-14T12:29:35.040Z,16.45
2019-05-14T12:30:35.032Z,16.34
2019-05-14T12:31:35.026Z,16.17
2019-05-14T12:32:35.014Z,16.18
2019-05-14T12:33:35.039Z,16.34
2019-05-14T12:34:34.988Z,16.45
2019-05-14T12:35:34.985Z,16.65
2019-05-14T12:36:34.976Z,16.95
2019-05-14T12:37:34.973Z,16.96
2019-05-14T12:38:34.974Z,16.82
2019-05-14T12:39:34.938Z,16.75
2019-05-14T12:40:34.922Z,16.70
2019-05-14T12:41:34.926Z,16.72
2019-05-14T12:42:34.915Z,16.77
2019-05-14T12:43:34.943Z,16.92
2019-05-14T12:44:37.372Z,17.00
2019-05-14T12:45:35.871Z,16.88
2019-05-14T12:46:34.877Z,16.84
2019-05-14T12:47:34.850Z,17.02
2019-05-14T12:48:34.859Z,17.06
2019-05-14T12:49:34.845Z,17.43
2019-05-14T12:50:34.847Z,17.68
2019-05-14T12:51:38.373Z,18.23
2019-05-14T12:52:35.797Z,18.39
2019-05-14T12:53:34.783Z,18.66
2019-05-14T12:54:34.793Z,20.27
2019-05-14T12:55:34.775Z,21.90
2019-05-14T12:56:34.829Z,22.85
2019-05-14T12:57:34.747Z,22.86
2019-05-14T12:58:34.733Z,22.60
2019-05-14T12:59:34.732Z,22.89
2019-05-14T13:00:34.710Z,23.62
2019-05-14T13:01:34.694Z,23.62
2019-05-14T13:02:34.688Z,22.88
2019-05-14T13:03:34.680Z,22.61